Time;durP1;ratioP1;P1;durP2;ratioP2;P2;SDS_P1;SDS_P2;PMS_P1;PMS_P2;Temp;Humidity;BMP_temperature;BMP_pressure;BME280_temperature;BME280_humidity;BME280_pressure;Samples;Min_cycle;Max_cycle;Signal;HPM_P1;HPM_P2
2021/07/01 00:01:13;;;;;;;10.10;7.80;;;15.40;99.90;;;;;;5012890;28;20212;-80
2021/07/01 00:03:39;;;;;;;12.00;7.45;;;15.30;99.90;;;;;;5012867;28;20187;-79
2021/07/01 00:06:05;;;;;;;15.77;8.82;;;15.30;99.90;;;;;;5013109;28;20176;-81
2021/07/01 00:08:31;;;;;;;12.88;8.40;;;15.40;99.90;;;;;;5012948;28;20169;-80
2021/07/01 00:10:56;;;;;;;14.85;8.35;;;15.40;99.90;;;;;;5012787;28;20180;-81
2021/07/01 00:13:22;;;;;;;11.10;7.93;;;15.40;99.90;;;;;;5012932;28;20279;-79
2021/07/01 00:15:48;;;;;;;9.43;8.52;;;15.40;99.90;;;;;;5012642;28;20187;-79
2021/07/01 00:18:14;;;;;;;15.05;7.03;;;15.30;99.90;;;;;;5013096;28;20664;-80
2021/07/01 00:20:40;;;;;;;20.80;7.57;;;15.20;99.90;;;;;;5012529;28;20164;-79
2021/07/01 00:23:06;;;;;;;11.07;7.43;;;15.20;99.90;;;;;;5011344;28;20551;-79
2021/07/01 00:25:32;;;;;;;13.77;7.38;;;15.20;99.90;;;;;;5012900;28;20648;-80
2021/07/01 00:27:59;;;;;;;13.55;7.65;;;15.10;99.90;;;;;;5012794;28;20165;-79
2021/07/01 00:30:25;;;;;;;12.32;7.72;;;15.00;99.90;;;;;;5012556;28;20168;-79
2021/07/01 00:32:51;;;;;;;9.88;8.43;;;15.00;99.90;;;;;;5012819;28;20192;-80
2021/07/01 00:35:17;;;;;;;8.43;7.28;;;15.10;99.90;;;;;;5012797;28;20211;-79
2021/07/01 00:37:43;;;;;;;12.27;7.72;;;15.10;99.90;;;;;;5012439;28;20173;-79
2021/07/01 00:40:10;;;;;;;15.52;7.55;;;15.10;99.90;;;;;;5012632;28;20203;-80
2021/07/01 00:42:37;;;;;;;13.07;6.47;;;15.10;99.90;;;;;;5012430;28;20206;-80
2021/07/01 00:45:05;;;;;;;11.75;7.38;;;15.10;99.90;;;;;;5012218;28;20177;-80
2021/07/01 00:47:31;;;;;;;10.30;6.38;;;15.10;99.90;;;;;;5012186;28;20180;-80
2021/07/01 00:50:07;;;;;;;8.95;6.78;;;15.10;99.90;;;;;;5012613;28;20237;-80
2021/07/01 00:52:33;;;;;;;8.77;6.63;;;15.20;99.90;;;;;;5011457;28;20215;-80
2021/07/01 00:54:59;;;;;;;12.02;7.20;;;15.30;99.90;;;;;;5012394;28;20219;-80
2021/07/01 00:57:25;;;;;;;14.00;7.22;;;15.30;99.90;;;;;;5011274;28;20169;-79
2021/07/01 00:59:50;;;;;;;11.07;7.25;;;15.30;99.90;;;;;;5012221;28;20625;-78
2021/07/01 01:02:16;;;;;;;13.55;7.55;;;15.40;99.90;;;;;;5011936;28;20209;-80
2021/07/01 01:04:42;;;;;;;12.77;6.85;;;15.40;99.90;;;;;;5011221;28;20179;-80
2021/07/01 01:07:07;;;;;;;9.00;6.35;;;15.30;99.90;;;;;;5011086;28;20230;-80
2021/07/01 01:09:33;;;;;;;10.93;7.25;;;15.40;99.90;;;;;;5012279;28;20239;-80
2021/07/01 01:11:59;;;;;;;12.60;7.28;;;15.40;99.90;;;;;;5012414;28;20181;-80
2021/07/01 01:14:24;;;;;;;16.92;7.22;;;15.30;99.90;;;;;;5010464;28;20195;-80
2021/07/01 01:16:50;;;;;;;12.30;6.68;;;15.30;99.90;;;;;;5012238;28;20173;-80
2021/07/01 01:19:15;;;;;;;13.00;6.28;;;15.30;99.90;;;;;;5012163;28;20204;-79
2021/07/01 01:21:48;;;;;;;17.27;6.80;;;15.40;99.90;;;;;;5012304;28;20208;-79
2021/07/01 01:24:14;;;;;;;15.68;7.18;;;15.30;99.90;;;;;;5012399;28;20848;-79
2021/07/01 01:26:40;;;;;;;10.95;7.20;;;15.20;99.90;;;;;;5012849;28;20238;-79
2021/07/01 01:29:06;;;;;;;12.05;6.68;;;15.20;99.90;;;;;;5015850;28;20617;-80
2021/07/01 01:31:32;;;;;;;12.73;6.65;;;15.50;99.90;;;;;;5015822;28;20173;-79
2021/07/01 01:33:58;;;;;;;14.60;6.18;;;15.70;99.90;;;;;;5015896;28;20192;-80
2021/07/01 01:36:23;;;;;;;9.85;7.18;;;15.50;99.90;;;;;;5015675;28;20738;-79
2021/07/01 01:38:49;;;;;;;8.60;5.85;;;15.40;99.90;;;;;;5015864;28;20219;-80
2021/07/01 01:41:15;;;;;;;13.60;5.85;;;15.40;99.90;;;;;;5015534;28;20706;-80
2021/07/01 01:43:41;;;;;;;10.18;5.43;;;15.60;99.90;;;;;;5015688;28;20188;-79
2021/07/01 01:46:07;;;;;;;8.10;6.20;;;15.50;99.90;;;;;;5015972;28;20201;-79
2021/07/01 01:48:33;;;;;;;12.32;6.68;;;15.40;99.90;;;;;;5016493;28;20176;-80
2021/07/01 01:50:59;;;;;;;14.70;6.65;;;15.40;99.90;;;;;;5016164;28;20169;-79
2021/07/01 01:53:24;;;;;;;10.38;6.63;;;15.40;99.90;;;;;;5016247;28;20266;-80
2021/07/01 01:55:50;;;;;;;10.00;6.20;;;15.40;99.90;;;;;;5014765;28;20629;-79
2021/07/01 01:58:15;;;;;;;7.93;6.60;;;15.30;99.90;;;;;;5015728;28;20180;-80
2021/07/01 02:00:44;;;;;;;11.80;7.22;;;15.30;99.90;;;;;;5014490;28;20176;-80
2021/07/01 02:03:09;;;;;;;26.77;7.40;;;15.40;99.90;;;;;;5015619;28;20283;-79
2021/07/01 02:05:35;;;;;;;10.55;6.65;;;15.40;99.90;;;;;;5015306;28;20259;-80
2021/07/01 02:08:01;;;;;;;10.23;6.53;;;15.40;99.90;;;;;;5015674;28;20205;-79
2021/07/01 02:10:29;;;;;;;14.40;6.90;;;15.40;99.90;;;;;;5015673;28;20284;-79
2021/07/01 02:12:55;;;;;;;11.95;6.22;;;15.40;99.90;;;;;;5015252;28;20192;-80
2021/07/01 02:15:23;;;;;;;15.88;7.05;;;15.30;99.90;;;;;;5014695;28;20164;-79
2021/07/01 02:17:53;;;;;;;8.90;6.68;;;15.40;99.90;;;;;;5015077;28;20536;-79
2021/07/01 02:20:23;;;;;;;12.30;7.05;;;15.20;99.90;;;;;;5015122;28;20165;-79
2021/07/01 02:22:49;;;;;;;12.10;7.57;;;15.40;99.90;;;;;;5014500;28;20208;-78
2021/07/01 02:25:15;;;;;;;11.50;7.13;;;15.30;99.90;;;;;;5013726;28;20168;-79
2021/07/01 02:27:41;;;;;;;11.55;7.85;;;15.30;99.90;;;;;;5014920;28;20165;-79
2021/07/01 02:30:10;;;;;;;15.93;8.02;;;15.30;99.90;;;;;;5014751;28;20196;-79
2021/07/01 02:32:36;;;;;;;11.45;7.65;;;15.30;99.90;;;;;;5013135;28;20216;-78
2021/07/01 02:35:03;;;;;;;12.07;7.32;;;15.30;99.90;;;;;;5012690;28;20222;-79
2021/07/01 02:37:29;;;;;;;9.55;7.07;;;15.20;99.90;;;;;;5012128;28;20648;-79
2021/07/01 02:39:55;;;;;;;24.40;8.88;;;15.20;99.90;;;;;;5011163;28;20169;-78
2021/07/01 02:42:20;;;;;;;9.85;7.35;;;15.20;99.90;;;;;;5012719;28;20704;-78
2021/07/01 02:44:46;;;;;;;15.68;8.13;;;15.10;99.90;;;;;;5013112;28;20196;-78
2021/07/01 02:47:11;;;;;;;19.27;8.52;;;15.20;99.90;;;;;;5013141;28;20171;-79
2021/07/01 02:49:37;;;;;;;11.32;9.10;;;15.00;99.90;;;;;;5014452;28;20164;-79
2021/07/01 02:52:03;;;;;;;12.68;9.23;;;15.00;99.90;;;;;;5014579;28;20191;-78
2021/07/01 02:54:29;;;;;;;14.02;8.27;;;14.90;99.90;;;;;;5014320;28;20219;-80
2021/07/01 02:56:55;;;;;;;23.90;8.15;;;15.10;99.90;;;;;;5014266;28;20641;-79
2021/07/01 02:59:20;;;;;;;11.55;8.80;;;15.10;99.90;;;;;;5013867;28;20506;-78
2021/07/01 03:01:47;;;;;;;17.55;8.90;;;15.10;99.90;;;;;;5014075;28;20208;-78
2021/07/01 03:04:13;;;;;;;19.05;8.48;;;15.10;99.90;;;;;;5014185;28;20239;-78
2021/07/01 03:06:39;;;;;;;18.20;8.70;;;15.30;99.90;;;;;;5014525;28;20181;-78
2021/07/01 03:09:06;;;;;;;11.77;8.00;;;15.30;99.90;;;;;;5014174;28;20169;-78
2021/07/01 03:11:32;;;;;;;13.95;8.77;;;15.20;99.90;;;;;;5013750;28;20184;-78
2021/07/01 03:13:58;;;;;;;15.40;9.68;;;15.20;99.90;;;;;;5013735;28;20243;-78
2021/07/01 03:16:23;;;;;;;14.55;8.43;;;15.20;99.90;;;;;;5013933;28;20176;-78
2021/07/01 03:18:50;;;;;;;20.10;9.05;;;15.10;99.90;;;;;;5013580;28;20171;-79
2021/07/01 03:21:18;;;;;;;16.92;9.32;;;15.10;99.90;;;;;;5013699;28;20207;-79
2021/07/01 03:23:44;;;;;;;9.95;8.25;;;15.20;99.90;;;;;;5012472;28;20189;-78
2021/07/01 03:26:10;;;;;;;11.40;8.50;;;15.30;99.90;;;;;;5013755;28;20188;-79
2021/07/01 03:28:36;;;;;;;14.63;8.48;;;15.30;99.90;;;;;;5013594;28;20183;-80
2021/07/01 03:31:04;;;;;;;9.60;8.18;;;15.20;99.90;;;;;;5013514;28;20164;-80
2021/07/01 03:33:29;;;;;;;16.95;8.57;;;15.20;99.90;;;;;;5013623;28;20197;-79
2021/07/01 03:35:55;;;;;;;17.67;8.38;;;15.20;99.90;;;;;;5013622;28;20165;-80
2021/07/01 03:38:21;;;;;;;14.75;8.57;;;15.20;99.90;;;;;;5011482;28;20239;-80
2021/07/01 03:40:47;;;;;;;14.43;8.93;;;15.20;99.90;;;;;;5006553;28;20164;-80
2021/07/01 03:43:12;;;;;;;10.27;7.57;;;15.30;99.90;;;;;;5012999;28;20736;-80
2021/07/01 03:45:38;;;;;;;13.45;8.10;;;15.40;99.90;;;;;;5013119;28;20668;-80
2021/07/01 03:48:04;;;;;;;14.85;8.32;;;15.40;99.90;;;;;;5013200;28;20169;-79
2021/07/01 03:50:29;;;;;;;15.63;9.90;;;15.40;99.90;;;;;;5012362;28;20219;-79
2021/07/01 03:52:55;;;;;;;18.95;9.23;;;15.30;99.90;;;;;;5013146;28;20196;-79
2021/07/01 03:55:21;;;;;;;14.10;8.75;;;15.30;99.90;;;;;;5013518;28;20529;-81
2021/07/01 03:57:47;;;;;;;16.23;8.90;;;15.40;99.90;;;;;;5013036;28;20203;-80
2021/07/01 04:00:14;;;;;;;13.05;9.40;;;15.40;99.90;;;;;;5012779;28;20160;-80
2021/07/01 04:02:40;;;;;;;14.88;8.50;;;15.20;99.90;;;;;;5012740;28;20233;-79
2021/07/01 04:05:06;;;;;;;13.35;8.15;;;15.00;99.90;;;;;;5012753;28;20652;-81
2021/07/01 04:07:32;;;;;;;19.20;8.15;;;15.10;99.90;;;;;;5013079;28;20172;-81
2021/07/01 04:10:01;;;;;;;20.40;9.07;;;15.10;99.90;;;;;;5012841;28;20625;-80
2021/07/01 04:12:27;;;;;;;12.25;7.90;;;15.20;99.90;;;;;;5012794;28;20180;-79
2021/07/01 04:14:53;;;;;;;21.35;8.23;;;15.30;99.90;;;;;;5012647;28;20180;-78
2021/07/01 04:17:18;;;;;;;10.50;7.93;;;15.30;99.90;;;;;;5012813;28;20637;-80
2021/07/01 04:19:44;;;;;;;19.38;8.35;;;15.40;99.90;;;;;;5012963;28;20191;-80
2021/07/01 04:22:10;;;;;;;15.20;9.00;;;15.40;99.90;;;;;;5011951;28;20234;-80
2021/07/01 04:24:35;;;;;;;15.88;7.90;;;15.40;99.90;;;;;;5012330;28;20247;-79
2021/07/01 04:27:01;;;;;;;16.52;7.93;;;15.50;99.90;;;;;;5012603;28;20168;-80
2021/07/01 04:29:26;;;;;;;10.52;6.97;;;15.40;99.90;;;;;;5012179;28;20215;-80
2021/07/01 04:31:52;;;;;;;12.77;7.32;;;15.50;99.90;;;;;;5012720;28;20168;-80
2021/07/01 04:34:18;;;;;;;19.73;8.63;;;15.40;99.90;;;;;;5012310;28;20580;-80
2021/07/01 04:36:43;;;;;;;12.25;6.80;;;15.60;99.90;;;;;;5012659;28;20271;-80
2021/07/01 04:39:09;;;;;;;10.40;7.65;;;15.70;99.90;;;;;;5012708;28;20259;-80
2021/07/01 04:41:35;;;;;;;15.68;7.65;;;15.60;99.90;;;;;;5012168;28;20631;-80
2021/07/01 04:44:00;;;;;;;9.30;7.18;;;15.70;99.90;;;;;;5012176;28;20200;-80
2021/07/01 04:46:26;;;;;;;10.45;7.18;;;15.90;99.90;;;;;;5010776;28;20656;-80
2021/07/01 04:48:53;;;;;;;18.15;7.07;;;15.70;99.90;;;;;;5011632;28;20538;-80
2021/07/01 04:51:19;;;;;;;10.18;7.40;;;15.70;99.90;;;;;;5012455;28;20192;-80
2021/07/01 04:53:45;;;;;;;27.80;7.50;;;15.80;99.90;;;;;;5012410;28;20239;-80
2021/07/01 04:56:10;;;;;;;14.50;6.68;;;15.80;99.90;;;;;;5012754;28;20169;-80
2021/07/01 04:58:37;;;;;;;14.57;6.90;;;16.00;99.90;;;;;;5010815;28;20556;-80
2021/07/01 05:01:03;;;;;;;11.13;6.18;;;16.00;99.90;;;;;;5013104;28;20303;-80
2021/07/01 05:03:28;;;;;;;16.67;7.20;;;16.10;99.90;;;;;;5015739;28;20188;-80
2021/07/01 05:05:54;;;;;;;18.75;7.30;;;16.20;99.90;;;;;;5015915;28;20165;-80
2021/07/01 05:08:20;;;;;;;14.13;5.95;;;16.30;99.90;;;;;;5015635;28;20172;-80
2021/07/01 05:10:46;;;;;;;12.68;7.15;;;16.30;99.90;;;;;;5016165;28;20188;-80
2021/07/01 05:13:12;;;;;;;12.23;6.13;;;16.30;99.90;;;;;;5015734;28;20644;-80
2021/07/01 05:15:40;;;;;;;16.05;7.20;;;16.20;99.90;;;;;;5016065;28;20173;-80
2021/07/01 05:18:05;;;;;;;11.25;7.07;;;16.20;99.90;;;;;;5015690;28;20172;-80
2021/07/01 05:20:31;;;;;;;8.45;6.47;;;16.20;99.90;;;;;;5015693;28;20176;-80
2021/07/01 05:22:57;;;;;;;11.85;6.88;;;16.10;99.90;;;;;;5015835;28;20634;-80
2021/07/01 05:25:22;;;;;;;17.02;6.88;;;16.20;99.90;;;;;;5015724;28;20160;-79
2021/07/01 05:27:48;;;;;;;14.73;7.53;;;16.30;99.90;;;;;;5015845;28;20648;-81
2021/07/01 05:30:15;;;;;;;22.88;6.80;;;16.30;99.90;;;;;;5015870;28;20238;-79
2021/07/01 05:32:40;;;;;;;13.68;6.53;;;16.20;99.90;;;;;;5015549;28;20184;-80
2021/07/01 05:35:07;;;;;;;9.68;5.78;;;16.10;99.90;;;;;;5015193;28;20243;-79
2021/07/01 05:37:32;;;;;;;18.77;6.65;;;16.00;99.90;;;;;;5015312;28;20177;-81
2021/07/01 05:39:58;;;;;;;10.50;6.38;;;16.00;99.90;;;;;;5014135;28;20183;-81
2021/07/01 05:42:24;;;;;;;11.77;6.05;;;16.00;99.90;;;;;;5015129;28;20299;-81
2021/07/01 05:44:50;;;;;;;10.25;5.95;;;16.00;99.90;;;;;;5015457;28;20169;-80
2021/07/01 05:47:15;;;;;;;7.88;5.57;;;15.90;99.90;;;;;;5015161;28;20230;-80
2021/07/01 05:49:41;;;;;;;13.02;5.82;;;16.00;99.90;;;;;;5015129;28;20531;-79
2021/07/01 05:52:08;;;;;;;10.73;6.80;;;16.20;99.90;;;;;;5014753;28;20169;-80
2021/07/01 05:54:40;;;;;;;9.15;5.50;;;16.20;99.90;;;;;;5015028;28;20176;-81
2021/07/01 05:57:06;;;;;;;9.75;5.95;;;16.20;99.90;;;;;;5014875;28;20169;-82
2021/07/01 05:59:32;;;;;;;10.02;5.70;;;16.20;99.90;;;;;;5014506;28;20175;-80
2021/07/01 06:01:58;;;;;;;11.68;5.60;;;16.20;99.90;;;;;;5014585;28;20204;-78
2021/07/01 06:04:23;;;;;;;7.65;5.00;;;16.20;99.90;;;;;;5013046;28;20196;-77
2021/07/01 06:06:53;;;;;;;6.15;4.55;;;16.00;99.90;;;;;;5014854;28;20169;-78
2021/07/01 06:09:25;;;;;;;9.20;4.85;;;15.90;99.90;;;;;;5014198;28;20160;-78
2021/07/01 06:11:56;;;;;;;17.70;6.15;;;15.80;99.90;;;;;;5014480;28;20221;-78
2021/07/01 06:14:26;;;;;;;7.43;5.00;;;15.80;99.90;;;;;;5014249;28;20180;-78
2021/07/01 06:16:54;;;;;;;15.85;6.20;;;15.90;99.90;;;;;;5014573;28;20175;-78
2021/07/01 06:19:21;;;;;;;12.88;5.07;;;15.80;99.90;;;;;;5014008;28;20577;-78
2021/07/01 06:21:48;;;;;;;9.77;5.15;;;15.90;99.90;;;;;;5014684;28;20204;-79
2021/07/01 06:24:15;;;;;;;12.57;5.38;;;16.00;99.90;;;;;;5014453;28;20191;-81
2021/07/01 06:26:42;;;;;;;14.18;4.63;;;16.00;99.90;;;;;;5014559;28;20625;-80
2021/07/01 06:29:08;;;;;;;10.25;5.07;;;16.00;99.90;;;;;;5014307;28;20172;-80
2021/07/01 06:31:35;;;;;;;12.32;4.40;;;15.90;99.90;;;;;;5013907;28;20227;-79
2021/07/01 06:34:01;;;;;;;11.38;5.00;;;15.90;99.90;;;;;;5012110;28;20189;-80
2021/07/01 06:36:28;;;;;;;7.68;5.03;;;16.20;99.90;;;;;;5014273;28;20227;-79
2021/07/01 06:39:00;;;;;;;6.93;5.07;;;16.10;99.90;;;;;;5029463;28;20164;-80
2021/07/01 06:41:28;;;;;;;7.93;5.07;;;16.20;99.90;;;;;;5020072;28;20787;-80
2021/07/01 06:43:54;;;;;;;13.20;5.22;;;16.20;99.90;;;;;;5012786;28;20280;-83
2021/07/01 06:46:21;;;;;;;7.28;5.13;;;15.90;99.90;;;;;;5013818;28;20177;-81
2021/07/01 06:48:47;;;;;;;8.23;4.30;;;15.80;99.90;;;;;;5013466;28;20203;-82
2021/07/01 06:51:15;;;;;;;6.70;3.00;;;15.70;99.90;;;;;;5012261;28;20173;-81
2021/07/01 06:53:42;;;;;;;10.02;3.78;;;15.70;99.90;;;;;;5014944;28;20227;-82
2021/07/01 06:56:09;;;;;;;7.47;3.63;;;15.70;99.90;;;;;;5016704;28;20175;-81
2021/07/01 06:58:40;;;;;;;10.73;3.78;;;15.70;99.90;;;;;;5016187;28;20169;-81
2021/07/01 07:01:06;;;;;;;12.23;3.15;;;15.80;99.90;;;;;;5016828;28;20232;-80
2021/07/01 07:03:32;;;;;;;6.15;3.05;;;15.90;99.90;;;;;;5014211;28;20657;-81
2021/07/01 07:06:00;;;;;;;12.75;2.92;;;15.80;99.90;;;;;;5014184;28;20165;-81
2021/07/01 07:08:26;;;;;;;8.43;2.97;;;15.70;99.90;;;;;;5012746;28;20691;-82
2021/07/01 07:10:52;;;;;;;8.88;3.28;;;15.80;99.90;;;;;;5028875;28;20246;-82
2021/07/01 07:13:23;;;;;;;8.02;3.33;;;15.90;99.90;;;;;;5014011;28;20193;-83
2021/07/01 07:15:49;;;;;;;11.25;4.13;;;16.00;99.90;;;;;;5012777;28;20572;-82
2021/07/01 07:18:27;;;;;;;9.70;3.63;;;16.10;99.90;;;;;;5013740;28;20180;-80
2021/07/01 07:21:02;;;;;;;9.57;3.78;;;16.10;99.90;;;;;;5013347;28;20176;-80
2021/07/01 07:23:33;;;;;;;11.18;4.00;;;16.10;99.90;;;;;;5013375;28;20196;-82
2021/07/01 07:26:03;;;;;;;4.25;3.35;;;16.20;99.90;;;;;;5012783;28;20619;-82
2021/07/01 07:28:31;;;;;;;9.98;3.88;;;16.20;99.90;;;;;;5013351;28;20629;-82
2021/07/01 07:30:58;;;;;;;5.65;3.50;;;16.20;99.90;;;;;;5013146;28;20172;-82
2021/07/01 07:33:28;;;;;;;10.73;3.13;;;16.10;99.90;;;;;;5011983;28;20188;-83
2021/07/01 07:35:54;;;;;;;7.70;3.85;;;16.20;99.90;;;;;;5028695;28;20203;-83
2021/07/01 07:38:24;;;;;;;8.93;3.50;;;16.30;99.90;;;;;;5012144;28;20176;-84
2021/07/01 07:40:50;;;;;;;9.50;5.07;;;16.40;99.90;;;;;;5011895;28;20274;-81
2021/07/01 07:43:19;;;;;;;9.43;3.72;;;16.50;99.90;;;;;;5011852;28;20207;-84
2021/07/01 07:45:46;;;;;;;7.15;4.20;;;16.60;99.90;;;;;;5028150;28;20175;-84
2021/07/01 07:48:12;;;;;;;6.03;4.10;;;16.70;99.90;;;;;;4995470;28;20180;-82
2021/07/01 07:50:40;;;;;;;8.90;4.45;;;16.90;99.90;;;;;;5012338;28;20613;-82
2021/07/01 07:53:15;;;;;;;6.75;4.03;;;16.90;99.90;;;;;;5012100;28;20236;-82
2021/07/01 07:55:44;;;;;;;9.70;3.60;;;17.00;99.90;;;;;;5012853;28;20167;-82
2021/07/01 07:58:13;;;;;;;11.50;3.72;;;16.70;99.90;;;;;;5011664;28;20168;-82
2021/07/01 08:00:39;;;;;;;8.07;3.33;;;16.90;99.90;;;;;;5013302;28;20212;-82
2021/07/01 08:03:07;;;;;;;13.70;4.13;;;16.80;99.90;;;;;;5011838;28;20220;-82
2021/07/01 08:05:33;;;;;;;4.95;3.15;;;16.80;99.90;;;;;;5013227;28;20200;-82
2021/07/01 08:08:00;;;;;;;6.40;3.38;;;16.80;99.90;;;;;;5013125;28;20548;-82
2021/07/01 08:10:30;;;;;;;7.03;3.10;;;16.90;99.90;;;;;;5012221;28;20196;-82
2021/07/01 08:13:03;;;;;;;6.57;2.47;;;17.10;99.90;;;;;;5013945;28;20285;-82
2021/07/01 08:15:30;;;;;;;6.32;2.55;;;17.30;99.90;;;;;;5013723;28;20258;-82
2021/07/01 08:17:57;;;;;;;8.75;2.85;;;17.40;99.90;;;;;;5014524;28;20176;-83
2021/07/01 08:20:24;;;;;;;5.70;3.30;;;17.40;99.90;;;;;;5012455;28;20172;-83
2021/07/01 08:22:52;;;;;;;5.15;2.72;;;17.30;99.90;;;;;;5013757;28;20255;-83
2021/07/01 08:25:19;;;;;;;8.43;2.95;;;17.30;99.90;;;;;;5011629;28;20176;-84
2021/07/01 08:27:47;;;;;;;5.82;2.70;;;17.30;99.90;;;;;;5028803;28;20907;-83
2021/07/01 08:30:18;;;;;;;6.07;3.13;;;17.30;99.90;;;;;;5012052;28;20792;-84
2021/07/01 08:32:46;;;;;;;5.32;2.97;;;17.40;99.90;;;;;;5027950;28;20188;-84
2021/07/01 08:35:15;;;;;;;8.40;3.40;;;17.60;99.90;;;;;;5027829;28;20242;-84
2021/07/01 08:37:44;;;;;;;6.63;2.80;;;17.40;99.90;;;;;;5034668;28;20168;-84
2021/07/01 08:40:13;;;;;;;10.32;2.53;;;17.40;99.90;;;;;;5034354;28;20331;-84
2021/07/01 08:42:39;;;;;;;4.10;2.67;;;17.20;99.90;;;;;;5019046;28;20552;-84
2021/07/01 08:45:07;;;;;;;6.15;3.15;;;17.40;99.90;;;;;;5034354;28;20176;-84
2021/07/01 08:47:35;;;;;;;5.63;2.88;;;17.60;99.90;;;;;;5017841;28;20180;-84
2021/07/01 08:50:05;;;;;;;6.22;2.83;;;17.50;99.90;;;;;;5032607;28;20255;-84
2021/07/01 08:52:32;;;;;;;6.68;2.58;;;17.70;99.90;;;;;;5033618;28;20559;-84
2021/07/01 08:55:04;;;;;;;7.45;2.58;;;17.80;99.90;;;;;;5018926;28;20165;-84
2021/07/01 08:57:33;;;;;;;5.75;3.38;;;17.70;99.90;;;;;;5018550;28;20180;-84
2021/07/01 09:00:07;;;;;;;11.23;3.20;;;17.70;99.90;;;;;;5019025;28;20171;-84
2021/07/01 09:02:42;;;;;;;8.43;4.20;;;17.80;99.90;;;;;;5034234;28;20294;-84
2021/07/01 09:05:17;;;;;;;6.93;2.70;;;18.00;99.90;;;;;;5019087;28;20183;-84
2021/07/01 09:07:53;;;;;;;5.57;2.63;;;18.10;99.90;;;;;;5019769;28;20168;-84
2021/07/01 09:10:21;;;;;;;7.10;2.75;;;18.10;99.90;;;;;;5034318;28;20237;-84
2021/07/01 09:12:58;;;;;;;7.22;2.72;;;18.10;99.90;;;;;;5018830;28;20552;-84
2021/07/01 09:15:26;;;;;;;5.22;2.40;;;17.80;99.90;;;;;;5034501;28;20164;-84
2021/07/01 09:17:52;;;;;;;15.52;2.80;;;17.80;99.90;;;;;;5017613;28;20181;-82
2021/07/01 09:20:21;;;;;;;7.18;2.63;;;17.90;99.90;;;;;;5033975;28;20164;-83
2021/07/01 09:22:53;;;;;;;11.27;3.75;;;17.80;99.90;;;;;;5018672;28;20231;-81
2021/07/01 09:25:19;;;;;;;11.10;3.60;;;17.80;99.90;;;;;;5018602;28;20179;-81
2021/07/01 09:27:51;;;;;;;5.90;2.83;;;17.90;99.90;;;;;;5018801;28;20507;-84
2021/07/01 09:30:20;;;;;;;5.28;3.28;;;18.00;99.90;;;;;;5034252;28;20247;-82
2021/07/01 09:32:46;;;;;;;10.38;2.35;;;18.00;99.90;;;;;;5033486;28;20716;-80
2021/07/01 09:35:12;;;;;;;10.40;2.97;;;17.80;99.90;;;;;;5018481;28;20379;-80
2021/07/01 09:37:43;;;;;;;7.55;2.60;;;18.10;99.90;;;;;;5018403;28;20528;-80
2021/07/01 09:40:11;;;;;;;7.35;3.08;;;18.10;99.90;;;;;;5009322;28;20208;-80
2021/07/01 09:42:36;;;;;;;9.05;3.22;;;18.30;99.90;;;;;;5004999;28;20354;-81
2021/07/01 09:45:09;;;;;;;10.38;2.97;;;18.50;99.90;;;;;;5022472;28;20252;-80
2021/07/01 09:47:43;;;;;;;7.60;2.75;;;18.50;99.90;;;;;;5006042;28;20180;-81
2021/07/01 09:50:10;;;;;;;16.48;3.22;;;18.70;99.90;;;;;;5005998;28;20174;-80
2021/07/01 09:52:42;;;;;;;7.38;2.97;;;18.90;99.90;;;;;;5003994;28;20670;-81
2021/07/01 09:55:09;;;;;;;4.18;2.95;;;18.90;99.90;;;;;;5000565;28;20231;-80
2021/07/01 09:57:43;;;;;;;14.32;2.90;;;19.20;99.90;;;;;;5002894;28;20180;-81
2021/07/01 10:00:13;;;;;;;4.68;2.70;;;19.10;99.90;;;;;;5014578;28;20727;-81
2021/07/01 10:02:40;;;;;;;7.65;3.50;;;19.20;99.90;;;;;;5013776;28;20677;-80
2021/07/01 10:05:11;;;;;;;5.93;2.40;;;19.30;99.90;;;;;;5008242;28;20169;-82
2021/07/01 10:07:48;;;;;;;10.52;3.17;;;19.10;99.90;;;;;;5013831;28;20176;-80
2021/07/01 10:10:14;;;;;;;5.55;2.75;;;19.00;99.90;;;;;;5014978;28;20263;-81
2021/07/01 10:12:59;;;;;;;5.63;2.75;;;19.00;99.90;;;;;;5026336;28;20282;-81
2021/07/01 10:15:36;;;;;;;5.00;2.88;;;19.10;99.90;;;;;;5011324;28;20637;-82
2021/07/01 10:18:33;;;;;;;6.82;2.63;;;19.20;99.90;;;;;;5013144;28;20632;-79
2021/07/01 10:21:00;;;;;;;6.72;2.40;;;19.30;99.90;;;;;;4995145;28;20185;-80
2021/07/01 10:23:33;;;;;;;7.03;3.17;;;19.30;99.90;;;;;;5022710;28;20620;-80
2021/07/01 10:26:09;;;;;;;6.35;3.22;;;19.40;99.90;;;;;;5006740;28;20208;-79
2021/07/01 10:28:34;;;;;;;5.88;3.05;;;19.40;99.90;;;;;;5009837;28;20175;-79
2021/07/01 10:31:13;;;;;;;12.00;3.05;;;19.00;99.90;;;;;;5014397;28;20173;-79
2021/07/01 10:33:42;;;;;;;9.90;2.85;;;19.00;99.90;;;;;;5013174;28;20193;-80
2021/07/01 10:36:24;;;;;;;5.45;2.35;;;19.20;99.90;;;;;;5008631;28;20169;-81
2021/07/01 10:38:52;;;;;;;11.63;3.60;;;19.50;99.90;;;;;;5010772;28;20173;-79
2021/07/01 10:41:30;;;;;;;7.80;3.05;;;19.80;99.90;;;;;;4993631;28;20209;-80
2021/07/01 10:43:57;;;;;;;11.07;3.60;;;19.90;99.90;;;;;;4995272;28;20708;-80
2021/07/01 10:46:43;;;;;;;8.68;3.45;;;20.10;99.90;;;;;;4993847;28;20181;-79
2021/07/01 10:49:12;;;;;;;4.43;3.15;;;20.20;99.90;;;;;;4993517;28;20207;-81
2021/07/01 10:52:01;;;;;;;13.00;3.30;;;20.20;99.90;;;;;;4994968;28;20240;-81
2021/07/01 10:54:30;;;;;;;7.63;2.45;;;20.20;99.90;;;;;;4994986;28;20228;-80
2021/07/01 10:57:09;;;;;;;9.98;3.08;;;19.90;99.90;;;;;;5012793;28;20586;-80
2021/07/01 10:59:52;;;;;;;3.75;2.40;;;20.00;99.90;;;;;;5000034;28;20288;-80
2021/07/01 11:02:29;;;;;;;6.60;2.58;;;20.10;99.90;;;;;;5010209;28;20261;-79
2021/07/01 11:05:00;;;;;;;10.13;3.20;;;20.00;99.90;;;;;;5013691;28;20721;-80
2021/07/01 11:07:27;;;;;;;7.85;3.97;;;19.90;99.90;;;;;;5014583;28;20176;-80
2021/07/01 11:09:56;;;;;;;10.27;3.50;;;20.00;99.90;;;;;;5014787;28;20184;-80
2021/07/01 11:12:25;;;;;;;13.07;3.88;;;19.70;99.90;;;;;;5013694;28;20176;-79
2021/07/01 11:14:55;;;;;;;6.05;2.80;;;19.60;99.90;;;;;;5013734;28;20172;-79
2021/07/01 11:17:39;;;;;;;9.98;2.95;;;19.60;99.90;;;;;;5007253;28;20181;-80
2021/07/01 11:20:31;;;;;;;12.70;4.43;;;19.40;99.90;;;;;;5024924;28;20208;-79
2021/07/01 11:22:58;;;;;;;8.57;3.70;;;19.40;99.90;;;;;;4979012;28;20251;-79
2021/07/01 11:25:27;;;;;;;13.98;4.82;;;19.40;99.90;;;;;;4994145;28;20180;-80
2021/07/01 11:28:13;;;;;;;8.25;3.88;;;19.60;99.90;;;;;;4994719;28;20687;-81
2021/07/01 11:30:54;;;;;;;10.70;4.22;;;19.60;99.90;;;;;;5009399;28;20208;-80
2021/07/01 11:33:21;;;;;;;12.65;4.85;;;19.60;99.90;;;;;;5009623;28;20545;-82
2021/07/01 11:35:48;;;;;;;9.05;5.15;;;19.90;99.90;;;;;;4995500;28;20180;-82
2021/07/01 11:38:31;;;;;;;10.43;4.68;;;19.70;99.90;;;;;;5010730;28;20161;-87
2021/07/01 11:41:08;;;;;;;6.85;3.55;;;20.20;99.90;;;;;;4996516;28;20180;-85
2021/07/01 11:43:40;;;;;;;9.85;4.20;;;20.20;99.90;;;;;;5011727;28;20205;-85
2021/07/01 11:46:06;;;;;;;8.40;4.43;;;20.10;99.90;;;;;;5012450;28;20689;-87
2021/07/01 11:48:34;;;;;;;16.30;4.53;;;20.40;99.90;;;;;;5011264;28;20220;-90
2021/07/01 11:51:03;;;;;;;6.50;4.75;;;20.50;99.90;;;;;;5010881;28;20260;-81
2021/07/01 11:53:30;;;;;;;10.65;3.67;;;20.30;99.90;;;;;;5009514;28;20193;-81
2021/07/01 11:55:58;;;;;;;8.20;3.85;;;20.50;99.90;;;;;;4994613;28;20200;-81
2021/07/01 11:58:27;;;;;;;9.88;4.25;;;20.60;99.90;;;;;;4993202;28;20177;-80
2021/07/01 12:00:54;;;;;;;7.82;3.45;;;20.90;99.90;;;;;;4994318;28;20243;-80
2021/07/01 12:03:20;;;;;;;8.18;3.58;;;21.10;99.90;;;;;;4993836;28;20224;-81
2021/07/01 12:05:49;;;;;;;4.85;3.35;;;21.00;99.90;;;;;;4994004;28;20189;-79
2021/07/01 12:08:15;;;;;;;9.15;3.95;;;21.40;99.90;;;;;;5009178;28;20196;-81
2021/07/01 12:10:41;;;;;;;8.48;3.38;;;21.30;99.90;;;;;;4994304;28;20626;-81
2021/07/01 12:13:33;;;;;;;12.60;3.88;;;21.30;99.90;;;;;;4996253;28;20717;-80
2021/07/01 12:16:14;;;;;;;4.18;3.58;;;21.40;99.90;;;;;;4991548;28;20185;-86
2021/07/01 12:18:52;;;;;;;8.85;3.60;;;21.00;99.90;;;;;;5010300;28;20169;-88
2021/07/01 12:21:28;;;;;;;6.13;3.70;;;21.20;99.90;;;;;;5010861;28;21086;-85
2021/07/01 12:24:01;;;;;;;8.02;3.70;;;21.20;99.90;;;;;;4996062;28;20193;-86
2021/07/01 12:26:44;;;;;;;11.77;4.57;;;21.40;99.90;;;;;;5011842;28;20172;-87
2021/07/01 12:29:40;;;;;;;4.28;2.58;;;21.50;99.90;;;;;;5015525;28;20173;-87
2021/07/01 12:32:25;;;;;;;8.23;3.63;;;21.40;99.90;;;;;;5017867;28;20170;-83
2021/07/01 12:34:51;;;;;;;9.00;3.63;;;20.90;99.90;;;;;;5015312;28;20189;-84
2021/07/01 12:37:17;;;;;;;4.22;2.80;;;21.00;99.90;;;;;;5014435;28;20161;-83
2021/07/01 12:39:47;;;;;;;11.25;4.13;;;20.90;99.90;;;;;;4994012;28;20176;-83
2021/07/01 12:42:19;;;;;;;4.28;3.13;;;20.80;99.90;;;;;;5009077;28;20697;-86
2021/07/01 12:44:46;;;;;;;8.13;3.28;;;21.10;99.90;;;;;;5008251;28;20264;-79
2021/07/01 12:47:31;;;;;;;3.40;3.10;;;21.30;99.90;;;;;;5007544;28;20169;-80